Seat Pleasant, Maryland
Current Conditions -  °F | °C
As of 10:58 PM on Tuesday 21 Oct 2014 (Local Time) from KADW Reporting Station
Moderate Rain Moderate Rain  
Wind Chill: 54°   Ceiling: 5500
Heat Index: 54°   Visibility: 6mi
Dew Point: 52°   Wind: 10mph
Humidity: 93%   Direction: 310°NW
Pressure: 29.91"   Gusts: NA
Location:  38.8854°N, 76.8965°W
Report Text: KADW 220258Z AUTO 31009KT 6SM RA BR OVC055 12/11 A2991 RMK AO2 RAE0212B0229DZB0212E0229 SLP135 P0004 60007 T01210110 52012 $
Loading
Personal Weather Stations






























Interactive Weather Map
Tropical Storm Tracking
New forecast layout! Learn more

10-Day Weather Forecast

Advertisements
Track Severe Weather on mobile